<<    April 2013    >>
Datum    Temp.       Tempmin      Tempmax    Taup.       Taup.min      Taup.max    Feuchte    Feuchtemin    Feuchtemax    Druck    Druckmin    Druckmax    Regen    Wind    Benmax  
  01.04.2013  2,5    -4,4    06:58    9,1    15:58  -7,4    -10,3    20:51    -3,5    09:19  51,8    29    17:25    82    08:18  1012,9    1009    17:35    1015    00:00  0,0  2,4  15,5  
  02.04.2013  3,7    -2,1    05:48    9,6    15:52  -8,7    -10,4    05:14    -6,6    12:38  40,8    28    17:15    57    07:43  1013,5    1012    00:00    1016    21:20  0,0  3,6  27,7  
  03.04.2013  2,5    -2,8    05:05    7,1    17:26  -7,4    -10,1    01:44    -4,9    09:27  48,7    39    16:50    63    06:39  1016,5    1015    00:37    1018    08:05  0,0  2,3  14,0  
  04.04.2013  4,9    0,9    05:00    9,3    16:46  -5,6    -7,9    00:18    -3,7    15:48  46,9    38    16:20    54    05:16  1012,9    1010    18:05    1016    00:00  0,0  3,4  16,6  
  05.04.2013  3,2    1,2    05:31    4,6    14:32  -3,8    -5,8    02:11    -1,4    23:01  60,1    53    00:00    69    23:59  1012,6    1010    06:04    1016    23:59  0,0  2,8  13,0  
  06.04.2013  4,1    0,4    23:21    6,8    13:33  -0,9    -3,8    23:13    2,9    10:35  70,8    52    18:38    89    09:35  1020,1    1016    00:00    1024    20:51  0,0  2,8  14,8  
  07.04.2013  5,2    -1,6    07:07    12,0    16:13  -4,0    -8,6    20:45    0,8    09:43  56,5    28    17:26    90    08:38  1021,9    1017    18:49    1025    01:19  0,0  1,3  13,7  
  08.04.2013  6,6    1,1    06:53    12,2    14:21  -3,9    -7,4    06:29    3,6    23:26  49,1    30    13:30    86    23:59  1009,6    1005    23:59    1018    00:00  0,9  2,4  20,2  
  09.04.2013  7,1    2,3    05:36    10,5    18:30  4,5    1,4    05:30    7,6    17:15  84,3    67    11:53    98    07:38  1002,1    999    17:48    1006    00:03  2,7  3,0  16,2  
  10.04.2013  8,9    7,0    06:41    11,8    16:37  6,1    4,0    20:44    8,8    10:51  83,0    66    16:43    92    05:57  1005,2    1002    00:00    1009    19:18  0,0  2,0  16,6  
  11.04.2013  11,7    7,4    01:45    16,6    14:54  7,2    4,6    16:08    14,1    10:56  76,5    47    15:04    98    02:10  1000,8    999    07:33    1008    00:00  6,7  3,6  20,5  
  12.04.2013  11,6    8,1    07:05    16,7    15:33  6,9    4,0    12:42    9,0    10:31  75,3    46    15:35    98    05:22  1002,6    999    00:18    1007    23:59  3,0  3,0  20,5  
  13.04.2013  12,4    8,8    04:16    16,9    16:28  4,0    -0,1    14:56    7,0    04:43  59,4    34    16:06    87    03:39  1016,1    1007    00:00    1023    23:33  0,0  4,5  24,5  
  14.04.2013  16,9    11,4    00:49    23,1    17:20  8,3    5,9    00:06    9,5    13:51  58,9    36    18:56    81    02:32  1020,9    1017    18:48    1023    10:47  0,0  4,1  16,9  
  15.04.2013  16,6    12,2    06:58    22,5    13:23  9,0    6,7    02:03    11,9    16:55  61,7    41    13:03    85    23:58  1019,2    1018    01:32    1020    12:03  0,0  2,6  15,8  
  16.04.2013  16,5    10,5    04:44    22,2    13:37  7,9    1,7    20:34    13,8    08:51  62,2    34    13:40    98    06:05  1019,4    1018    03:47    1022    23:47  0,0  2,7  20,2  
  17.04.2013  18,5    14,2    05:35    25,0    16:37  8,2    6,4    17:55    11,1    11:19  52,8    32    16:32    70    07:14  1019,6    1013    23:59    1023    03:31  0,0  2,3  11,9  
  18.04.2013  16,5    11,0    23:53    19,3    14:45  3,1    -2,2    19:42    9,8    06:50  42,6    26    14:32    67    06:47  1016,4    1011    03:02    1021    21:47  0,0  5,0  24,8  
  19.04.2013  11,3    8,0    23:19    15,1    16:43  1,5    -1,2    00:00    3,9    23:58  51,7    37    14:53    74    23:58  1024,3    1019    01:32    1029    21:45  0,0  3,9  16,6  
  20.04.2013  9,8    4,9    06:55    14,4    17:30  -1,0    -4,2    17:09    4,1    00:19  49,3    28    17:09    74    00:00  1029,5    1027    17:03    1033    10:02  0,0  5,8  21,2  
  21.04.2013  10,3    5,6    06:19    14,0    15:11  0,2    -2,7    03:35    2,9    22:58  49,9    40    15:39    62    07:30  1021,4    1017    18:45    1028    00:00  0,0  1,5  9,7  
  22.04.2013  12,2    7,8    08:00    17,9    15:55  -0,2    -4,8    21:02    3,1    00:53  44,3    28    18:43    63    05:38  1018,3    1016    17:00    1020    08:30  0,0  2,6  16,2  
  23.04.2013  13,2    9,7    06:12    19,0    14:10  4,1    -1,7    00:00    8,5    16:15  54,4    43    14:11    75    23:49  1021,0    1019    01:16    1024    23:59  0,0  2,7  20,2  
  24.04.2013  15,4    7,0    06:22    24,3    16:58  6,4    4,0    17:10    9,1    10:09  59,8    27    17:10    93    07:47  1024,7    1023    23:59    1027    12:00  0,0  1,8  15,5  
  25.04.2013  18,4    10,6    06:30    26,3    15:32  8,7    6,0    20:10    11,6    10:49  57,1    30    17:23    86    06:50  1021,8    1016    20:14    1026    06:00  0,0  1,0  11,5  
  26.04.2013  13,2    6,8    22:54    20,0    12:15  9,1    6,5    23:59    12,0    15:16  78,1    48    11:20    98    19:59  1010,7    1005    15:29    1017    00:00  2,8  2,5  19,4  
  27.04.2013  8,3    6,2    04:54    11,4    13:51  2,8    -1,8    17:40    6,6    00:00  71,8    42    17:40    98    00:00  1012,1    1009    01:59    1016    23:59  2,0  4,4  20,9  
  28.04.2013  8,8    3,1    06:29    15,1    14:17  1,2    -0,7    14:33    3,5    23:14  60,6    35    14:23    84    06:48  1017,7    1015    01:45    1020    10:44  0,0  2,5  13,0  
  29.04.2013  10,9    5,4    01:56    16,6    15:07  1,1    -4,0    10:17    4,4    02:57  55,0    28    11:24    83    02:29  1018,2    1015    04:58    1023    22:59  0,0  2,8  24,8  
  30.04.2013  11,0    3,5    06:07    16,6    15:06  0,7    -3,0    16:32    5,5    08:28  53,7    27    16:12    87    06:33  1022,5    1021    00:00    1024    21:58  0,0  2,5  20,9  
 
  Gesamt  10,4  -4,4            26,3            1,9  -10,4            14,1            58,9  26            98            1016,1  999            1033            18,0  2,9  27,7  
 
  Mittelwert  10,4  5,5            15,5            1,9  -1,3            5,5            58,9  38,0            81,4            1016,1  1012,6            1019,9            0,6  2,9  17,8  
  Minimum  2,5  -4,4            4,6            -8,7  -10,4            -6,6            40,8  26,0            54,0            1000,8  999,0            1006,0            0,0  1,0  9,7  
  Maximum  18,5  14,2            26,3            9,1  6,7            14,1            84,3  67,0            98,0            1029,5  1027,0            1033,0            6,7  5,8  27,7  

  Heie Tage    Tmax >=30C     0  
  Sommertage    Tmax >=25C     2  
  Warme Tage    Tmax >=20C     7  
  Kalte Tage    Tmax  <10C     6  
  Frosttage    Tmin  <0C     4  
  Eistage    Tmax  <0C     0  
  Regentage > 0 mm    6  
  Regentage > 2 mm    4  
  Regentage > 10 mm    0  
  Regentage > 20 mm    0